sensor_id;sensor_type;location;lat;lon;timestamp;temperature;humidity
7254;DHT22;4060;49.186;9.226;2024-01-25T00:01:50;11.80;74.80
7254;DHT22;4060;49.186;9.226;2024-01-25T00:04:19;11.80;74.80
7254;DHT22;4060;49.186;9.226;2024-01-25T00:06:49;11.80;74.80
7254;DHT22;4060;49.186;9.226;2024-01-25T00:09:20;11.80;74.90
7254;DHT22;4060;49.186;9.226;2024-01-25T00:11:49;11.80;74.90
7254;DHT22;4060;49.186;9.226;2024-01-25T00:14:18;11.80;74.90
7254;DHT22;4060;49.186;9.226;2024-01-25T00:16:48;11.80;74.90
7254;DHT22;4060;49.186;9.226;2024-01-25T00:19:18;11.80;74.90
7254;DHT22;4060;49.186;9.226;2024-01-25T00:21:48;11.80;75.00
7254;DHT22;4060;49.186;9.226;2024-01-25T00:24:20;11.80;75.00
7254;DHT22;4060;49.186;9.226;2024-01-25T00:26:49;11.80;75.00
7254;DHT22;4060;49.186;9.226;2024-01-25T00:29:18;11.80;75.10
7254;DHT22;4060;49.186;9.226;2024-01-25T00:31:48;11.80;75.10
7254;DHT22;4060;49.186;9.226;2024-01-25T00:34:19;11.80;75.10
7254;DHT22;4060;49.186;9.226;2024-01-25T00:36:48;11.80;75.20
7254;DHT22;4060;49.186;9.226;2024-01-25T00:39:25;11.80;75.20
7254;DHT22;4060;49.186;9.226;2024-01-25T00:42:01;11.80;75.30
7254;DHT22;4060;49.186;9.226;2024-01-25T00:44:33;11.80;75.40
7254;DHT22;4060;49.186;9.226;2024-01-25T00:47:03;11.80;75.40
7254;DHT22;4060;49.186;9.226;2024-01-25T00:49:33;11.80;75.40
7254;DHT22;4060;49.186;9.226;2024-01-25T00:52:03;11.80;75.50
7254;DHT22;4060;49.186;9.226;2024-01-25T00:54:34;11.80;75.40
7254;DHT22;4060;49.186;9.226;2024-01-25T00:57:04;11.80;75.40
7254;DHT22;4060;49.186;9.226;2024-01-25T00:59:33;11.80;75.50
7254;DHT22;4060;49.186;9.226;2024-01-25T01:02:05;11.80;75.40
7254;DHT22;4060;49.186;9.226;2024-01-25T01:04:35;11.70;75.40
7254;DHT22;4060;49.186;9.226;2024-01-25T01:07:06;11.70;75.30
7254;DHT22;4060;49.186;9.226;2024-01-25T01:09:37;11.80;75.50
7254;DHT22;4060;49.186;9.226;2024-01-25T01:12:07;11.80;75.50
7254;DHT22;4060;49.186;9.226;2024-01-25T01:14:36;11.80;75.50
7254;DHT22;4060;49.186;9.226;2024-01-25T01:17:08;11.70;75.50
7254;DHT22;4060;49.186;9.226;2024-01-25T01:19:37;11.80;75.60
7254;DHT22;4060;49.186;9.226;2024-01-25T01:22:09;11.70;75.50
7254;DHT22;4060;49.186;9.226;2024-01-25T01:24:43;11.80;75.50
7254;DHT22;4060;49.186;9.226;2024-01-25T01:27:12;11.70;75.50
7254;DHT22;4060;49.186;9.226;2024-01-25T01:29:42;11.70;75.50
7254;DHT22;4060;49.186;9.226;2024-01-25T01:32:13;11.70;75.60
7254;DHT22;4060;49.186;9.226;2024-01-25T01:34:42;11.70;75.60
7254;DHT22;4060;49.186;9.226;2024-01-25T01:37:12;11.70;75.60
7254;DHT22;4060;49.186;9.226;2024-01-25T01:39:43;11.70;75.60
7254;DHT22;4060;49.186;9.226;2024-01-25T01:42:12;11.70;75.60
7254;DHT22;4060;49.186;9.226;2024-01-25T01:44:42;11.70;75.70
7254;DHT22;4060;49.186;9.226;2024-01-25T01:47:12;11.70;75.70
7254;DHT22;4060;49.186;9.226;2024-01-25T01:49:41;11.70;75.70
7254;DHT22;4060;49.186;9.226;2024-01-25T01:52:12;11.70;75.70
7254;DHT22;4060;49.186;9.226;2024-01-25T01:54:44;11.70;75.70
7254;DHT22;4060;49.186;9.226;2024-01-25T01:57:15;11.70;75.70
7254;DHT22;4060;49.186;9.226;2024-01-25T01:59:45;11.70;75.80
7254;DHT22;4060;49.186;9.226;2024-01-25T02:02:16;11.70;75.70
7254;DHT22;4060;49.186;9.226;2024-01-25T02:04:45;11.70;75.80
7254;DHT22;4060;49.186;9.226;2024-01-25T02:07:14;11.70;75.80
7254;DHT22;4060;49.186;9.226;2024-01-25T02:09:46;11.70;75.80
7254;DHT22;4060;49.186;9.226;2024-01-25T02:12:15;11.70;75.80
7254;DHT22;4060;49.186;9.226;2024-01-25T02:14:46;11.70;75.90
7254;DHT22;4060;49.186;9.226;2024-01-25T02:17:15;11.70;75.80
7254;DHT22;4060;49.186;9.226;2024-01-25T02:19:45;11.70;75.80
7254;DHT22;4060;49.186;9.226;2024-01-25T02:22:18;11.60;75.70
7254;DHT22;4060;49.186;9.226;2024-01-25T02:24:48;11.60;75.70
7254;DHT22;4060;49.186;9.226;2024-01-25T02:27:17;11.70;75.80
7254;DHT22;4060;49.186;9.226;2024-01-25T02:29:47;11.70;75.80
7254;DHT22;4060;49.186;9.226;2024-01-25T02:32:16;11.60;75.80
7254;DHT22;4060;49.186;9.226;2024-01-25T02:34:47;11.60;75.80
7254;DHT22;4060;49.186;9.226;2024-01-25T02:37:18;11.60;75.70
7254;DHT22;4060;49.186;9.226;2024-01-25T02:39:48;11.60;75.70
7254;DHT22;4060;49.186;9.226;2024-01-25T02:42:17;11.60;75.80
7254;DHT22;4060;49.186;9.226;2024-01-25T02:44:46;11.60;75.60
7254;DHT22;4060;49.186;9.226;2024-01-25T02:47:16;11.60;75.60
7254;DHT22;4060;49.186;9.226;2024-01-25T02:49:46;11.60;75.60
7254;DHT22;4060;49.186;9.226;2024-01-25T02:52:17;11.60;75.60
7254;DHT22;4060;49.186;9.226;2024-01-25T02:54:46;11.60;75.60
7254;DHT22;4060;49.186;9.226;2024-01-25T02:57:16;11.60;75.50
7254;DHT22;4060;49.186;9.226;2024-01-25T02:59:46;11.60;75.50
7254;DHT22;4060;49.186;9.226;2024-01-25T03:02:15;11.60;75.50
7254;DHT22;4060;49.186;9.226;2024-01-25T03:04:46;11.60;75.60
7254;DHT22;4060;49.186;9.226;2024-01-25T03:07:17;11.60;75.50
7254;DHT22;4060;49.186;9.226;2024-01-25T03:09:46;11.60;75.50
7254;DHT22;4060;49.186;9.226;2024-01-25T03:12:16;11.60;75.50
7254;DHT22;4060;49.186;9.226;2024-01-25T03:14:44;11.60;75.50
7254;DHT22;4060;49.186;9.226;2024-01-25T03:17:13;11.60;75.60
7254;DHT22;4060;49.186;9.226;2024-01-25T03:19:42;11.60;75.60
7254;DHT22;4060;49.186;9.226;2024-01-25T03:22:12;11.60;75.60
7254;DHT22;4060;49.186;9.226;2024-01-25T03:24:43;11.60;75.60
7254;DHT22;4060;49.186;9.226;2024-01-25T03:27:12;11.60;75.60
7254;DHT22;4060;49.186;9.226;2024-01-25T03:29:42;11.60;75.70
7254;DHT22;4060;49.186;9.226;2024-01-25T03:32:11;11.60;75.70
7254;DHT22;4060;49.186;9.226;2024-01-25T03:34:41;11.60;75.70
7254;DHT22;4060;49.186;9.226;2024-01-25T03:37:10;11.60;75.70
7254;DHT22;4060;49.186;9.226;2024-01-25T03:39:41;11.60;75.70
7254;DHT22;4060;49.186;9.226;2024-01-25T03:42:11;11.50;75.50
7254;DHT22;4060;49.186;9.226;2024-01-25T03:44:40;11.60;75.70
7254;DHT22;4060;49.186;9.226;2024-01-25T03:47:11;11.50;75.60
7254;DHT22;4060;49.186;9.226;2024-01-25T03:49:41;11.50;75.60
7254;DHT22;4060;49.186;9.226;2024-01-25T03:52:10;11.50;75.70
7254;DHT22;4060;49.186;9.226;2024-01-25T03:54:42;11.50;75.60
7254;DHT22;4060;49.186;9.226;2024-01-25T03:57:11;11.50;75.60
7254;DHT22;4060;49.186;9.226;2024-01-25T03:59:40;11.50;75.70
7254;DHT22;4060;49.186;9.226;2024-01-25T04:02:10;11.50;75.60
7254;DHT22;4060;49.186;9.226;2024-01-25T04:04:40;11.50;75.70
7254;DHT22;4060;49.186;9.226;2024-01-25T04:07:09;11.50;75.60
7254;DHT22;4060;49.186;9.226;2024-01-25T04:09:42;11.50;75.60
7254;DHT22;4060;49.186;9.226;2024-01-25T04:12:12;11.50;75.60
7254;DHT22;4060;49.186;9.226;2024-01-25T04:14:42;11.50;75.60
7254;DHT22;4060;49.186;9.226;2024-01-25T04:17:11;11.50;75.50
7254;DHT22;4060;49.186;9.226;2024-01-25T04:19:41;11.50;75.60
7254;DHT22;4060;49.186;9.226;2024-01-25T04:22:10;11.50;75.60
7254;DHT22;4060;49.186;9.226;2024-01-25T04:24:42;11.50;75.70
7254;DHT22;4060;49.186;9.226;2024-01-25T04:27:12;11.50;75.70
7254;DHT22;4060;49.186;9.226;2024-01-25T04:29:41;11.50;75.70
7254;DHT22;4060;49.186;9.226;2024-01-25T04:32:12;11.50;75.80
7254;DHT22;4060;49.186;9.226;2024-01-25T04:34:41;11.50;75.70
7254;DHT22;4060;49.186;9.226;2024-01-25T04:37:14;11.50;75.10
7254;DHT22;4060;49.186;9.226;2024-01-25T04:39:45;11.50;75.90
7254;DHT22;4060;49.186;9.226;2024-01-25T04:42:15;11.40;75.80
7254;DHT22;4060;49.186;9.226;2024-01-25T04:44:44;11.40;75.90
7254;DHT22;4060;49.186;9.226;2024-01-25T04:47:14;11.40;76.00
7254;DHT22;4060;49.186;9.226;2024-01-25T04:49:43;11.40;76.00
7254;DHT22;4060;49.186;9.226;2024-01-25T04:52:17;11.40;76.00
7254;DHT22;4060;49.186;9.226;2024-01-25T04:54:49;11.40;76.10
7254;DHT22;4060;49.186;9.226;2024-01-25T04:57:18;11.40;76.00
7254;DHT22;4060;49.186;9.226;2024-01-25T04:59:48;11.40;76.00
7254;DHT22;4060;49.186;9.226;2024-01-25T05:02:18;11.40;76.10
7254;DHT22;4060;49.186;9.226;2024-01-25T05:04:47;11.40;76.10
7254;DHT22;4060;49.186;9.226;2024-01-25T05:07:17;11.30;76.00
7254;DHT22;4060;49.186;9.226;2024-01-25T05:09:50;11.40;76.20
7254;DHT22;4060;49.186;9.226;2024-01-25T05:12:19;11.40;76.90
7254;DHT22;4060;49.186;9.226;2024-01-25T05:14:49;11.30;76.00
7254;DHT22;4060;49.186;9.226;2024-01-25T05:17:19;11.30;76.10
7254;DHT22;4060;49.186;9.226;2024-01-25T05:19:48;11.30;76.10
7254;DHT22;4060;49.186;9.226;2024-01-25T05:22:17;11.30;76.10
7254;DHT22;4060;49.186;9.226;2024-01-25T05:24:50;11.30;76.20
7254;DHT22;4060;49.186;9.226;2024-01-25T05:27:19;11.30;76.20
7254;DHT22;4060;49.186;9.226;2024-01-25T05:29:48;11.30;76.20
7254;DHT22;4060;49.186;9.226;2024-01-25T05:32:17;11.30;76.30
7254;DHT22;4060;49.186;9.226;2024-01-25T05:34:48;11.30;76.40
7254;DHT22;4060;49.186;9.226;2024-01-25T05:37:17;11.20;76.30
7254;DHT22;4060;49.186;9.226;2024-01-25T05:39:48;11.30;76.50
7254;DHT22;4060;49.186;9.226;2024-01-25T05:42:17;11.30;76.50
7254;DHT22;4060;49.186;9.226;2024-01-25T05:44:47;11.30;76.50
7254;DHT22;4060;49.186;9.226;2024-01-25T05:47:16;11.20;76.50
7254;DHT22;4060;49.186;9.226;2024-01-25T05:49:45;11.20;76.50
7254;DHT22;4060;49.186;9.226;2024-01-25T05:52:14;11.20;76.50
7254;DHT22;4060;49.186;9.226;2024-01-25T05:54:44;11.20;76.60
7254;DHT22;4060;49.186;9.226;2024-01-25T05:57:16;11.20;76.60
7254;DHT22;4060;49.186;9.226;2024-01-25T05:59:46;11.20;76.70
7254;DHT22;4060;49.186;9.226;2024-01-25T06:02:16;11.20;76.60
7254;DHT22;4060;49.186;9.226;2024-01-25T06:04:46;11.20;76.70
7254;DHT22;4060;49.186;9.226;2024-01-25T06:07:15;11.20;76.80
7254;DHT22;4060;49.186;9.226;2024-01-25T06:09:44;11.10;76.60
7254;DHT22;4060;49.186;9.226;2024-01-25T06:12:15;11.10;76.60
7254;DHT22;4060;49.186;9.226;2024-01-25T06:14:45;11.10;76.70
7254;DHT22;4060;49.186;9.226;2024-01-25T06:17:14;11.20;76.80
7254;DHT22;4060;49.186;9.226;2024-01-25T06:19:44;11.10;76.80
7254;DHT22;4060;49.186;9.226;2024-01-25T06:22:13;11.10;76.80
7254;DHT22;4060;49.186;9.226;2024-01-25T06:24:44;11.10;76.80
7254;DHT22;4060;49.186;9.226;2024-01-25T06:27:15;11.10;76.80
7254;DHT22;4060;49.186;9.226;2024-01-25T06:29:44;11.10;76.80
7254;DHT22;4060;49.186;9.226;2024-01-25T06:32:13;11.10;76.70
7254;DHT22;4060;49.186;9.226;2024-01-25T06:34:43;11.10;76.80
7254;DHT22;4060;49.186;9.226;2024-01-25T06:37:12;11.10;76.80
7254;DHT22;4060;49.186;9.226;2024-01-25T06:39:43;11.10;76.80
7254;DHT22;4060;49.186;9.226;2024-01-25T06:42:14;11.00;76.80
7254;DHT22;4060;49.186;9.226;2024-01-25T06:44:44;11.00;76.80
7254;DHT22;4060;49.186;9.226;2024-01-25T06:47:13;11.00;76.90
7254;DHT22;4060;49.186;9.226;2024-01-25T06:49:43;11.00;76.90
7254;DHT22;4060;49.186;9.226;2024-01-25T06:52:15;11.00;77.00
7254;DHT22;4060;49.186;9.226;2024-01-25T06:54:44;11.00;77.00
7254;DHT22;4060;49.186;9.226;2024-01-25T06:57:15;11.00;77.00
7254;DHT22;4060;49.186;9.226;2024-01-25T06:59:44;11.00;77.80
7254;DHT22;4060;49.186;9.226;2024-01-25T07:02:15;11.00;77.10
7254;DHT22;4060;49.186;9.226;2024-01-25T07:04:44;11.00;77.10
7254;DHT22;4060;49.186;9.226;2024-01-25T07:07:13;11.00;77.20
7254;DHT22;4060;49.186;9.226;2024-01-25T07:09:43;11.00;77.20
7254;DHT22;4060;49.186;9.226;2024-01-25T07:12:14;11.00;77.20
7254;DHT22;4060;49.186;9.226;2024-01-25T07:14:43;11.00;77.20
7254;DHT22;4060;49.186;9.226;2024-01-25T07:17:13;10.90;77.20
7254;DHT22;4060;49.186;9.226;2024-01-25T07:19:43;10.90;77.20
7254;DHT22;4060;49.186;9.226;2024-01-25T07:22:14;10.90;77.20
7254;DHT22;4060;49.186;9.226;2024-01-25T07:24:45;10.90;77.20
7254;DHT22;4060;49.186;9.226;2024-01-25T07:27:17;10.90;77.20
7254;DHT22;4060;49.186;9.226;2024-01-25T07:29:45;10.90;77.30
7254;DHT22;4060;49.186;9.226;2024-01-25T07:32:14;10.90;77.30
7254;DHT22;4060;49.186;9.226;2024-01-25T07:34:43;10.90;77.30
7254;DHT22;4060;49.186;9.226;2024-01-25T07:37:13;10.90;77.40
7254;DHT22;4060;49.186;9.226;2024-01-25T07:39:43;10.90;77.40
7254;DHT22;4060;49.186;9.226;2024-01-25T07:42:12;10.90;77.40
7254;DHT22;4060;49.186;9.226;2024-01-25T07:44:43;10.90;77.40
7254;DHT22;4060;49.186;9.226;2024-01-25T07:47:13;10.90;77.40
7254;DHT22;4060;49.186;9.226;2024-01-25T07:49:42;10.80;77.30
7254;DHT22;4060;49.186;9.226;2024-01-25T07:52:11;10.80;77.30
7254;DHT22;4060;49.186;9.226;2024-01-25T07:54:41;10.80;77.30
7254;DHT22;4060;49.186;9.226;2024-01-25T07:57:11;10.80;77.30
7254;DHT22;4060;49.186;9.226;2024-01-25T07:59:42;10.80;77.30
7254;DHT22;4060;49.186;9.226;2024-01-25T08:02:12;10.80;77.20
7254;DHT22;4060;49.186;9.226;2024-01-25T08:04:42;10.80;77.20
7254;DHT22;4060;49.186;9.226;2024-01-25T08:07:11;10.80;77.20
7254;DHT22;4060;49.186;9.226;2024-01-25T08:09:41;10.80;77.20
7254;DHT22;4060;49.186;9.226;2024-01-25T08:12:10;10.80;77.30
7254;DHT22;4060;49.186;9.226;2024-01-25T08:14:39;10.80;77.40
7254;DHT22;4060;49.186;9.226;2024-01-25T08:17:13;10.80;77.50
7254;DHT22;4060;49.186;9.226;2024-01-25T08:19:42;10.80;77.60
7254;DHT22;4060;49.186;9.226;2024-01-25T08:22:11;10.80;77.60
7254;DHT22;4060;49.186;9.226;2024-01-25T08:24:41;10.80;77.70
7254;DHT22;4060;49.186;9.226;2024-01-25T08:27:10;10.70;77.60
7254;DHT22;4060;49.186;9.226;2024-01-25T08:29:40;10.80;77.70
7254;DHT22;4060;49.186;9.226;2024-01-25T08:32:11;10.80;77.70
7254;DHT22;4060;49.186;9.226;2024-01-25T08:34:40;10.80;77.60
7254;DHT22;4060;49.186;9.226;2024-01-25T08:37:09;10.80;77.60
7254;DHT22;4060;49.186;9.226;2024-01-25T08:39:39;10.80;77.60
7254;DHT22;4060;49.186;9.226;2024-01-25T08:42:10;10.80;77.60
7254;DHT22;4060;49.186;9.226;2024-01-25T08:44:40;10.80;77.70
7254;DHT22;4060;49.186;9.226;2024-01-25T08:47:18;10.80;77.60
7254;DHT22;4060;49.186;9.226;2024-01-25T08:49:47;10.80;77.70
7254;DHT22;4060;49.186;9.226;2024-01-25T08:52:17;10.80;77.70
7254;DHT22;4060;49.186;9.226;2024-01-25T08:54:46;10.70;77.60
7254;DHT22;4060;49.186;9.226;2024-01-25T08:57:15;10.70;77.60
7254;DHT22;4060;49.186;9.226;2024-01-25T08:59:45;10.80;77.60
7254;DHT22;4060;49.186;9.226;2024-01-25T09:02:17;10.80;77.70
7254;DHT22;4060;49.186;9.226;2024-01-25T09:04:49;10.80;77.60
7254;DHT22;4060;49.186;9.226;2024-01-25T09:07:18;10.80;77.70
7254;DHT22;4060;49.186;9.226;2024-01-25T09:09:47;10.80;77.80
7254;DHT22;4060;49.186;9.226;2024-01-25T09:12:17;10.80;77.70
7254;DHT22;4060;49.186;9.226;2024-01-25T09:14:46;10.80;77.80
7254;DHT22;4060;49.186;9.226;2024-01-25T09:17:18;10.80;77.80
7254;DHT22;4060;49.186;9.226;2024-01-25T09:19:50;10.90;78.00
7254;DHT22;4060;49.186;9.226;2024-01-25T09:22:20;10.90;78.10
7254;DHT22;4060;49.186;9.226;2024-01-25T09:24:50;10.90;78.10
7254;DHT22;4060;49.186;9.226;2024-01-25T09:27:19;11.00;78.20
7254;DHT22;4060;49.186;9.226;2024-01-25T09:29:48;11.00;78.20
7254;DHT22;4060;49.186;9.226;2024-01-25T09:32:19;11.00;78.20
7254;DHT22;4060;49.186;9.226;2024-01-25T09:34:50;11.00;78.10
7254;DHT22;4060;49.186;9.226;2024-01-25T09:37:19;11.00;78.00
7254;DHT22;4060;49.186;9.226;2024-01-25T09:39:50;11.10;78.00
7254;DHT22;4060;49.186;9.226;2024-01-25T09:42:20;11.10;78.00
7254;DHT22;4060;49.186;9.226;2024-01-25T09:44:49;11.10;78.10
7254;DHT22;4060;49.186;9.226;2024-01-25T09:47:21;11.10;78.10
7254;DHT22;4060;49.186;9.226;2024-01-25T09:49:51;11.20;78.40
7254;DHT22;4060;49.186;9.226;2024-01-25T09:52:22;11.20;78.40
7254;DHT22;4060;49.186;9.226;2024-01-25T09:54:53;11.20;78.30
7254;DHT22;4060;49.186;9.226;2024-01-25T09:57:25;11.20;78.20
7254;DHT22;4060;49.186;9.226;2024-01-25T09:59:55;11.20;78.20
7254;DHT22;4060;49.186;9.226;2024-01-25T10:02:26;11.30;78.30
7254;DHT22;4060;49.186;9.226;2024-01-25T10:04:55;11.30;78.30
7254;DHT22;4060;49.186;9.226;2024-01-25T10:07:37;11.30;78.30
7254;DHT22;4060;49.186;9.226;2024-01-25T10:10:07;11.40;78.40
7254;DHT22;4060;49.186;9.226;2024-01-25T10:12:38;11.30;78.10
7254;DHT22;4060;49.186;9.226;2024-01-25T10:15:08;11.40;78.30
7254;DHT22;4060;49.186;9.226;2024-01-25T10:17:39;11.40;78.30
7254;DHT22;4060;49.186;9.226;2024-01-25T10:20:08;11.40;78.10
7254;DHT22;4060;49.186;9.226;2024-01-25T10:22:39;11.40;78.20
7254;DHT22;4060;49.186;9.226;2024-01-25T10:25:13;11.40;78.10
7254;DHT22;4060;49.186;9.226;2024-01-25T10:27:42;11.50;78.20
7254;DHT22;4060;49.186;9.226;2024-01-25T10:30:13;11.50;78.00
7254;DHT22;4060;49.186;9.226;2024-01-25T10:32:46;11.50;77.70
7254;DHT22;4060;49.186;9.226;2024-01-25T10:35:15;11.50;77.70
7254;DHT22;4060;49.186;9.226;2024-01-25T10:37:45;11.50;77.40
7254;DHT22;4060;49.186;9.226;2024-01-25T10:40:15;11.60;77.40
7254;DHT22;4060;49.186;9.226;2024-01-25T10:42:47;11.60;77.20
7254;DHT22;4060;49.186;9.226;2024-01-25T10:45:17;11.60;77.30
7254;DHT22;4060;49.186;9.226;2024-01-25T10:47:50;11.60;77.30
7254;DHT22;4060;49.186;9.226;2024-01-25T10:50:21;11.60;77.50
7254;DHT22;4060;49.186;9.226;2024-01-25T10:52:53;11.70;77.50
7254;DHT22;4060;49.186;9.226;2024-01-25T10:55:23;11.70;77.20
7254;DHT22;4060;49.186;9.226;2024-01-25T10:57:53;11.70;77.10
7254;DHT22;4060;49.186;9.226;2024-01-25T11:00:23;11.70;77.10
7254;DHT22;4060;49.186;9.226;2024-01-25T11:02:56;11.70;77.10
7254;DHT22;4060;49.186;9.226;2024-01-25T11:05:26;11.80;77.10
7254;DHT22;4060;49.186;9.226;2024-01-25T11:07:56;11.80;76.90
7254;DHT22;4060;49.186;9.226;2024-01-25T11:10:25;11.80;76.80
7254;DHT22;4060;49.186;9.226;2024-01-25T11:12:56;11.80;76.70
7254;DHT22;4060;49.186;9.226;2024-01-25T11:15:31;11.90;76.60
7254;DHT22;4060;49.186;9.226;2024-01-25T11:18:04;11.90;76.50
7254;DHT22;4060;49.186;9.226;2024-01-25T11:20:34;11.90;76.40
7254;DHT22;4060;49.186;9.226;2024-01-25T11:23:05;11.90;76.40
7254;DHT22;4060;49.186;9.226;2024-01-25T11:25:37;11.90;76.20
7254;DHT22;4060;49.186;9.226;2024-01-25T11:28:07;12.00;76.30
7254;DHT22;4060;49.186;9.226;2024-01-25T11:30:37;12.00;76.20
7254;DHT22;4060;49.186;9.226;2024-01-25T11:33:09;12.00;76.00
7254;DHT22;4060;49.186;9.226;2024-01-25T11:35:38;12.00;75.70
7254;DHT22;4060;49.186;9.226;2024-01-25T11:38:09;12.00;75.50
7254;DHT22;4060;49.186;9.226;2024-01-25T11:40:39;12.00;75.50
7254;DHT22;4060;49.186;9.226;2024-01-25T11:43:11;12.10;75.50
7254;DHT22;4060;49.186;9.226;2024-01-25T11:45:41;12.10;75.50
7254;DHT22;4060;49.186;9.226;2024-01-25T11:48:13;12.10;75.10
7254;DHT22;4060;49.186;9.226;2024-01-25T11:50:42;12.10;74.80
7254;DHT22;4060;49.186;9.226;2024-01-25T11:53:12;12.10;74.50
7254;DHT22;4060;49.186;9.226;2024-01-25T11:55:42;12.10;74.40
7254;DHT22;4060;49.186;9.226;2024-01-25T11:58:11;12.10;74.50
7254;DHT22;4060;49.186;9.226;2024-01-25T12:00:41;12.20;74.60
7254;DHT22;4060;49.186;9.226;2024-01-25T12:03:13;12.20;74.70
7254;DHT22;4060;49.186;9.226;2024-01-25T12:05:43;12.20;74.60
7254;DHT22;4060;49.186;9.226;2024-01-25T12:08:13;12.20;74.30
7254;DHT22;4060;49.186;9.226;2024-01-25T12:10:43;12.20;74.10
7254;DHT22;4060;49.186;9.226;2024-01-25T12:13:12;12.20;74.20
7254;DHT22;4060;49.186;9.226;2024-01-25T12:15:42;12.30;74.20
7254;DHT22;4060;49.186;9.226;2024-01-25T12:18:13;12.30;74.00
7254;DHT22;4060;49.186;9.226;2024-01-25T12:20:43;12.30;74.00
7254;DHT22;4060;49.186;9.226;2024-01-25T12:23:12;12.30;73.70
7254;DHT22;4060;49.186;9.226;2024-01-25T12:25:41;12.30;73.40
7254;DHT22;4060;49.186;9.226;2024-01-25T12:28:11;12.30;73.30
7254;DHT22;4060;49.186;9.226;2024-01-25T12:30:41;12.40;73.50
7254;DHT22;4060;49.186;9.226;2024-01-25T12:33:13;12.40;73.40
7254;DHT22;4060;49.186;9.226;2024-01-25T12:35:42;12.40;73.40
7254;DHT22;4060;49.186;9.226;2024-01-25T12:38:12;12.40;73.50
7254;DHT22;4060;49.186;9.226;2024-01-25T12:40:42;12.40;73.40
7254;DHT22;4060;49.186;9.226;2024-01-25T12:43:12;12.40;73.30
7254;DHT22;4060;49.186;9.226;2024-01-25T12:45:41;12.50;73.40
7254;DHT22;4060;49.186;9.226;2024-01-25T12:48:10;12.50;73.70
7254;DHT22;4060;49.186;9.226;2024-01-25T12:50:42;12.50;73.60
7254;DHT22;4060;49.186;9.226;2024-01-25T12:53:11;12.50;73.40
7254;DHT22;4060;49.186;9.226;2024-01-25T12:55:41;12.50;73.30
7254;DHT22;4060;49.186;9.226;2024-01-25T12:58:09;12.50;73.30
7254;DHT22;4060;49.186;9.226;2024-01-25T13:00:39;12.60;73.30
7254;DHT22;4060;49.186;9.226;2024-01-25T13:03:08;12.60;73.10
7254;DHT22;4060;49.186;9.226;2024-01-25T13:05:37;12.60;73.00
7254;DHT22;4060;49.186;9.226;2024-01-25T13:08:08;12.60;73.20
7254;DHT22;4060;49.186;9.226;2024-01-25T13:10:37;12.70;73.50
7254;DHT22;4060;49.186;9.226;2024-01-25T13:13:06;12.70;73.40
7254;DHT22;4060;49.186;9.226;2024-01-25T13:15:36;12.70;73.30
7254;DHT22;4060;49.186;9.226;2024-01-25T13:18:05;12.70;72.90
7254;DHT22;4060;49.186;9.226;2024-01-25T13:20:35;12.70;72.90
7254;DHT22;4060;49.186;9.226;2024-01-25T13:23:06;12.70;72.80
7254;DHT22;4060;49.186;9.226;2024-01-25T13:25:35;12.70;72.70
7254;DHT22;4060;49.186;9.226;2024-01-25T13:28:06;12.70;72.90
7254;DHT22;4060;49.186;9.226;2024-01-25T13:30:35;12.70;73.00
7254;DHT22;4060;49.186;9.226;2024-01-25T13:33:04;12.70;73.00
7254;DHT22;4060;49.186;9.226;2024-01-25T13:35:33;12.70;73.00
7254;DHT22;4060;49.186;9.226;2024-01-25T13:38:03;12.70;73.10
7254;DHT22;4060;49.186;9.226;2024-01-25T13:40:34;12.70;73.10
7254;DHT22;4060;49.186;9.226;2024-01-25T13:43:03;12.70;73.00
7254;DHT22;4060;49.186;9.226;2024-01-25T13:45:33;12.80;72.90
7254;DHT22;4060;49.186;9.226;2024-01-25T13:48:02;12.70;72.70
7254;DHT22;4060;49.186;9.226;2024-01-25T13:50:32;12.70;72.70
7254;DHT22;4060;49.186;9.226;2024-01-25T13:53:01;12.70;72.70
7254;DHT22;4060;49.186;9.226;2024-01-25T13:55:30;12.70;72.90
7254;DHT22;4060;49.186;9.226;2024-01-25T13:58:01;12.80;73.10
7254;DHT22;4060;49.186;9.226;2024-01-25T14:00:30;12.80;73.20
7254;DHT22;4060;49.186;9.226;2024-01-25T14:03:00;12.80;73.30
7254;DHT22;4060;49.186;9.226;2024-01-25T14:05:29;12.80;73.30
7254;DHT22;4060;49.186;9.226;2024-01-25T14:07:59;12.80;72.80
7254;DHT22;4060;49.186;9.226;2024-01-25T14:10:28;12.80;72.50
7254;DHT22;4060;49.186;9.226;2024-01-25T14:13:01;12.80;72.40
7254;DHT22;4060;49.186;9.226;2024-01-25T14:15:30;12.80;72.20
7254;DHT22;4060;49.186;9.226;2024-01-25T14:18:00;12.80;72.20
7254;DHT22;4060;49.186;9.226;2024-01-25T14:20:29;12.90;72.40
7254;DHT22;4060;49.186;9.226;2024-01-25T14:22:58;12.90;73.10
7254;DHT22;4060;49.186;9.226;2024-01-25T14:25:28;12.90;72.30
7254;DHT22;4060;49.186;9.226;2024-01-25T14:27:57;12.90;72.30
7254;DHT22;4060;49.186;9.226;2024-01-25T14:30:28;12.90;72.40
7254;DHT22;4060;49.186;9.226;2024-01-25T14:32:57;12.90;72.20
7254;DHT22;4060;49.186;9.226;2024-01-25T14:35:27;12.90;72.10
7254;DHT22;4060;49.186;9.226;2024-01-25T14:37:56;12.90;72.20
7254;DHT22;4060;49.186;9.226;2024-01-25T14:40:26;12.90;72.40
7254;DHT22;4060;49.186;9.226;2024-01-25T14:42:55;12.90;72.30
7254;DHT22;4060;49.186;9.226;2024-01-25T14:45:25;12.90;72.00
7254;DHT22;4060;49.186;9.226;2024-01-25T14:47:57;13.00;72.00
7254;DHT22;4060;49.186;9.226;2024-01-25T14:50:26;12.90;71.70
7254;DHT22;4060;49.186;9.226;2024-01-25T14:52:56;13.00;71.90
7254;DHT22;4060;49.186;9.226;2024-01-25T14:55:25;13.00;71.90
7254;DHT22;4060;49.186;9.226;2024-01-25T14:57:55;13.00;71.90
7254;DHT22;4060;49.186;9.226;2024-01-25T15:00:24;13.00;71.90
7254;DHT22;4060;49.186;9.226;2024-01-25T15:02:53;13.00;71.70
7254;DHT22;4060;49.186;9.226;2024-01-25T15:05:25;13.00;71.60
7254;DHT22;4060;49.186;9.226;2024-01-25T15:07:54;13.00;71.50
7254;DHT22;4060;49.186;9.226;2024-01-25T15:10:24;13.00;71.40
7254;DHT22;4060;49.186;9.226;2024-01-25T15:12:54;13.00;71.30
7254;DHT22;4060;49.186;9.226;2024-01-25T15:15:25;13.00;71.30
7254;DHT22;4060;49.186;9.226;2024-01-25T15:17:55;13.00;71.30
7254;DHT22;4060;49.186;9.226;2024-01-25T15:20:26;13.00;71.20
7254;DHT22;4060;49.186;9.226;2024-01-25T15:22:56;12.90;71.20
7254;DHT22;4060;49.186;9.226;2024-01-25T15:25:27;13.00;71.30
7254;DHT22;4060;49.186;9.226;2024-01-25T15:27:57;13.00;71.30
7254;DHT22;4060;49.186;9.226;2024-01-25T15:30:26;13.00;71.30
7254;DHT22;4060;49.186;9.226;2024-01-25T15:32:56;13.00;71.40
7254;DHT22;4060;49.186;9.226;2024-01-25T15:35:29;13.00;71.40
7254;DHT22;4060;49.186;9.226;2024-01-25T15:37:58;13.00;71.40
7254;DHT22;4060;49.186;9.226;2024-01-25T15:40:32;12.90;71.30
7254;DHT22;4060;49.186;9.226;2024-01-25T15:43:02;12.90;71.30
7254;DHT22;4060;49.186;9.226;2024-01-25T15:45:31;12.90;71.50
7254;DHT22;4060;49.186;9.226;2024-01-25T15:48:00;12.90;71.60
7254;DHT22;4060;49.186;9.226;2024-01-25T15:50:32;12.90;71.60
7254;DHT22;4060;49.186;9.226;2024-01-25T15:53:01;12.90;71.70
7254;DHT22;4060;49.186;9.226;2024-01-25T15:55:30;12.90;71.70
7254;DHT22;4060;49.186;9.226;2024-01-25T15:58:00;12.90;71.80
7254;DHT22;4060;49.186;9.226;2024-01-25T16:00:29;12.90;71.90
7254;DHT22;4060;49.186;9.226;2024-01-25T16:02:58;12.90;71.90
7254;DHT22;4060;49.186;9.226;2024-01-25T16:05:27;12.90;71.90
7254;DHT22;4060;49.186;9.226;2024-01-25T16:07:58;12.90;71.90
7254;DHT22;4060;49.186;9.226;2024-01-25T16:10:27;12.90;71.90
7254;DHT22;4060;49.186;9.226;2024-01-25T16:12:57;12.80;71.80
7254;DHT22;4060;49.186;9.226;2024-01-25T16:15:27;12.80;71.80
7254;DHT22;4060;49.186;9.226;2024-01-25T16:17:56;12.80;71.90
7254;DHT22;4060;49.186;9.226;2024-01-25T16:20:25;12.80;71.90